sensor_id;sensor_type;location;lat;lon;timestamp;P1;durP1;ratioP1;P2;durP2;ratioP2
51943;SDS011;37969;53.132;6.370;2023-04-25T00:01:11;19.13;;;5.07;;
51943;SDS011;37969;53.132;6.370;2023-04-25T00:03:38;22.85;;;4.90;;
51943;SDS011;37969;53.132;6.370;2023-04-25T00:06:05;23.60;;;5.28;;
51943;SDS011;37969;53.132;6.370;2023-04-25T00:08:31;35.05;;;5.57;;
51943;SDS011;37969;53.132;6.370;2023-04-25T00:10:58;30.67;;;5.35;;
51943;SDS011;37969;53.132;6.370;2023-04-25T00:13:24;30.80;;;5.38;;
51943;SDS011;37969;53.132;6.370;2023-04-25T00:15:51;26.58;;;5.45;;
51943;SDS011;37969;53.132;6.370;2023-04-25T00:18:18;27.52;;;5.50;;
51943;SDS011;37969;53.132;6.370;2023-04-25T00:20:45;31.13;;;6.38;;
51943;SDS011;37969;53.132;6.370;2023-04-25T00:23:13;28.25;;;5.18;;
51943;SDS011;37969;53.132;6.370;2023-04-25T00:25:44;31.70;;;5.32;;
51943;SDS011;37969;53.132;6.370;2023-04-25T00:28:11;28.00;;;5.85;;
51943;SDS011;37969;53.132;6.370;2023-04-25T00:30:37;28.77;;;4.45;;
51943;SDS011;37969;53.132;6.370;2023-04-25T00:33:04;25.73;;;4.47;;
51943;SDS011;37969;53.132;6.370;2023-04-25T00:35:30;29.02;;;4.85;;
51943;SDS011;37969;53.132;6.370;2023-04-25T00:37:56;31.75;;;5.10;;
51943;SDS011;37969;53.132;6.370;2023-04-25T00:40:22;29.80;;;4.80;;
51943;SDS011;37969;53.132;6.370;2023-04-25T00:42:49;22.20;;;4.20;;
51943;SDS011;37969;53.132;6.370;2023-04-25T00:45:15;28.65;;;4.65;;
51943;SDS011;37969;53.132;6.370;2023-04-25T00:47:42;22.52;;;5.07;;
51943;SDS011;37969;53.132;6.370;2023-04-25T00:50:09;23.73;;;4.25;;
51943;SDS011;37969;53.132;6.370;2023-04-25T00:52:35;23.40;;;4.75;;
51943;SDS011;37969;53.132;6.370;2023-04-25T00:55:02;24.45;;;4.38;;
51943;SDS011;37969;53.132;6.370;2023-04-25T00:57:28;22.15;;;3.78;;
51943;SDS011;37969;53.132;6.370;2023-04-25T00:59:55;25.73;;;4.90;;
51943;SDS011;37969;53.132;6.370;2023-04-25T01:02:21;21.52;;;3.67;;
51943;SDS011;37969;53.132;6.370;2023-04-25T01:04:47;18.73;;;3.72;;
51943;SDS011;37969;53.132;6.370;2023-04-25T01:07:13;27.27;;;4.40;;
51943;SDS011;37969;53.132;6.370;2023-04-25T01:09:40;19.02;;;4.50;;
51943;SDS011;37969;53.132;6.370;2023-04-25T01:12:07;28.42;;;3.63;;
51943;SDS011;37969;53.132;6.370;2023-04-25T01:14:33;26.00;;;4.38;;
51943;SDS011;37969;53.132;6.370;2023-04-25T01:17:00;20.48;;;3.33;;
51943;SDS011;37969;53.132;6.370;2023-04-25T01:19:26;25.08;;;4.22;;
51943;SDS011;37969;53.132;6.370;2023-04-25T01:21:52;32.53;;;4.32;;
51943;SDS011;37969;53.132;6.370;2023-04-25T01:24:18;27.75;;;4.07;;
51943;SDS011;37969;53.132;6.370;2023-04-25T01:26:45;25.10;;;3.63;;
51943;SDS011;37969;53.132;6.370;2023-04-25T01:29:15;20.20;;;4.28;;
51943;SDS011;37969;53.132;6.370;2023-04-25T01:31:42;24.88;;;4.43;;
51943;SDS011;37969;53.132;6.370;2023-04-25T01:34:08;20.67;;;3.67;;
51943;SDS011;37969;53.132;6.370;2023-04-25T01:36:35;20.40;;;3.63;;
51943;SDS011;37969;53.132;6.370;2023-04-25T01:39:01;25.63;;;4.35;;
51943;SDS011;37969;53.132;6.370;2023-04-25T01:41:27;28.20;;;4.43;;
51943;SDS011;37969;53.132;6.370;2023-04-25T01:43:54;20.40;;;4.05;;
51943;SDS011;37969;53.132;6.370;2023-04-25T01:46:20;19.77;;;4.03;;
51943;SDS011;37969;53.132;6.370;2023-04-25T01:48:47;23.35;;;3.85;;
51943;SDS011;37969;53.132;6.370;2023-04-25T01:51:13;19.55;;;4.07;;
51943;SDS011;37969;53.132;6.370;2023-04-25T01:53:40;16.85;;;3.33;;
51943;SDS011;37969;53.132;6.370;2023-04-25T01:56:06;29.38;;;4.57;;
51943;SDS011;37969;53.132;6.370;2023-04-25T01:58:32;21.48;;;3.78;;
51943;SDS011;37969;53.132;6.370;2023-04-25T02:00:59;25.25;;;4.18;;
51943;SDS011;37969;53.132;6.370;2023-04-25T02:03:25;25.48;;;3.58;;
51943;SDS011;37969;53.132;6.370;2023-04-25T02:05:51;26.58;;;4.15;;
51943;SDS011;37969;53.132;6.370;2023-04-25T02:08:17;25.67;;;4.22;;
51943;SDS011;37969;53.132;6.370;2023-04-25T02:10:44;37.55;;;5.85;;
51943;SDS011;37969;53.132;6.370;2023-04-25T02:13:10;22.73;;;4.05;;
51943;SDS011;37969;53.132;6.370;2023-04-25T02:15:36;22.58;;;4.28;;
51943;SDS011;37969;53.132;6.370;2023-04-25T02:18:02;20.88;;;4.57;;
51943;SDS011;37969;53.132;6.370;2023-04-25T02:20:29;25.05;;;3.92;;
51943;SDS011;37969;53.132;6.370;2023-04-25T02:22:55;23.10;;;3.72;;
51943;SDS011;37969;53.132;6.370;2023-04-25T02:25:22;17.83;;;3.53;;
51943;SDS011;37969;53.132;6.370;2023-04-25T02:27:48;19.02;;;3.45;;
51943;SDS011;37969;53.132;6.370;2023-04-25T02:30:14;16.33;;;3.25;;
51943;SDS011;37969;53.132;6.370;2023-04-25T02:32:40;22.08;;;4.03;;
51943;SDS011;37969;53.132;6.370;2023-04-25T02:35:07;19.08;;;3.45;;
51943;SDS011;37969;53.132;6.370;2023-04-25T02:37:33;21.35;;;4.25;;
51943;SDS011;37969;53.132;6.370;2023-04-25T02:40:00;28.80;;;3.97;;
51943;SDS011;37969;53.132;6.370;2023-04-25T02:42:26;18.75;;;3.15;;
51943;SDS011;37969;53.132;6.370;2023-04-25T02:44:52;26.40;;;3.67;;
51943;SDS011;37969;53.132;6.370;2023-04-25T02:47:19;21.70;;;3.50;;
51943;SDS011;37969;53.132;6.370;2023-04-25T02:49:45;18.73;;;3.72;;
51943;SDS011;37969;53.132;6.370;2023-04-25T02:52:11;20.40;;;3.58;;
51943;SDS011;37969;53.132;6.370;2023-04-25T02:54:38;22.50;;;3.22;;
51943;SDS011;37969;53.132;6.370;2023-04-25T02:57:04;18.15;;;4.53;;
51943;SDS011;37969;53.132;6.370;2023-04-25T02:59:30;20.50;;;3.10;;
51943;SDS011;37969;53.132;6.370;2023-04-25T03:01:56;17.75;;;2.85;;
51943;SDS011;37969;53.132;6.370;2023-04-25T03:04:22;13.13;;;2.72;;
51943;SDS011;37969;53.132;6.370;2023-04-25T03:06:50;19.45;;;3.75;;
51943;SDS011;37969;53.132;6.370;2023-04-25T03:09:16;13.60;;;3.67;;
51943;SDS011;37969;53.132;6.370;2023-04-25T03:11:43;20.70;;;2.70;;
51943;SDS011;37969;53.132;6.370;2023-04-25T03:14:10;17.55;;;2.45;;
51943;SDS011;37969;53.132;6.370;2023-04-25T03:16:36;14.38;;;2.80;;
51943;SDS011;37969;53.132;6.370;2023-04-25T03:19:02;13.15;;;2.30;;
51943;SDS011;37969;53.132;6.370;2023-04-25T03:21:29;17.38;;;2.45;;
51943;SDS011;37969;53.132;6.370;2023-04-25T03:23:57;10.48;;;2.63;;
51943;SDS011;37969;53.132;6.370;2023-04-25T03:26:23;16.80;;;2.60;;
51943;SDS011;37969;53.132;6.370;2023-04-25T03:28:50;16.02;;;2.60;;
51943;SDS011;37969;53.132;6.370;2023-04-25T03:31:16;16.17;;;2.20;;
51943;SDS011;37969;53.132;6.370;2023-04-25T03:33:42;15.90;;;2.70;;
51943;SDS011;37969;53.132;6.370;2023-04-25T03:36:08;20.63;;;2.55;;
51943;SDS011;37969;53.132;6.370;2023-04-25T03:38:35;13.30;;;2.75;;
51943;SDS011;37969;53.132;6.370;2023-04-25T03:41:01;20.67;;;2.53;;
51943;SDS011;37969;53.132;6.370;2023-04-25T03:43:28;20.58;;;3.05;;
51943;SDS011;37969;53.132;6.370;2023-04-25T03:45:54;15.85;;;3.17;;
51943;SDS011;37969;53.132;6.370;2023-04-25T03:48:20;23.23;;;3.22;;
51943;SDS011;37969;53.132;6.370;2023-04-25T03:50:49;10.02;;;2.30;;
51943;SDS011;37969;53.132;6.370;2023-04-25T03:53:15;10.30;;;2.60;;
51943;SDS011;37969;53.132;6.370;2023-04-25T03:55:41;16.90;;;2.35;;
51943;SDS011;37969;53.132;6.370;2023-04-25T03:58:07;9.63;;;2.30;;
51943;SDS011;37969;53.132;6.370;2023-04-25T04:00:34;14.05;;;2.83;;
51943;SDS011;37969;53.132;6.370;2023-04-25T04:03:00;15.32;;;2.47;;
51943;SDS011;37969;53.132;6.370;2023-04-25T04:05:26;17.40;;;3.60;;
51943;SDS011;37969;53.132;6.370;2023-04-25T04:07:53;16.45;;;3.03;;
51943;SDS011;37969;53.132;6.370;2023-04-25T04:10:21;24.13;;;2.70;;
51943;SDS011;37969;53.132;6.370;2023-04-25T04:12:47;14.85;;;3.08;;
51943;SDS011;37969;53.132;6.370;2023-04-25T04:15:13;13.18;;;2.75;;
51943;SDS011;37969;53.132;6.370;2023-04-25T04:17:40;13.93;;;2.47;;
51943;SDS011;37969;53.132;6.370;2023-04-25T04:20:06;11.77;;;2.42;;
51943;SDS011;37969;53.132;6.370;2023-04-25T04:22:33;15.77;;;2.67;;
51943;SDS011;37969;53.132;6.370;2023-04-25T04:25:00;13.90;;;2.47;;
51943;SDS011;37969;53.132;6.370;2023-04-25T04:27:28;11.45;;;2.63;;
51943;SDS011;37969;53.132;6.370;2023-04-25T04:29:54;17.48;;;2.42;;
51943;SDS011;37969;53.132;6.370;2023-04-25T04:32:21;11.32;;;2.65;;
51943;SDS011;37969;53.132;6.370;2023-04-25T04:34:48;11.43;;;2.95;;
51943;SDS011;37969;53.132;6.370;2023-04-25T04:37:14;13.32;;;2.75;;
51943;SDS011;37969;53.132;6.370;2023-04-25T04:39:41;20.83;;;2.83;;
51943;SDS011;37969;53.132;6.370;2023-04-25T04:42:07;14.68;;;2.55;;
51943;SDS011;37969;53.132;6.370;2023-04-25T04:44:33;13.60;;;2.70;;
51943;SDS011;37969;53.132;6.370;2023-04-25T04:47:00;20.90;;;3.90;;
51943;SDS011;37969;53.132;6.370;2023-04-25T04:49:28;17.77;;;2.42;;
51943;SDS011;37969;53.132;6.370;2023-04-25T04:51:55;17.23;;;3.30;;
51943;SDS011;37969;53.132;6.370;2023-04-25T04:54:21;22.40;;;3.63;;
51943;SDS011;37969;53.132;6.370;2023-04-25T04:56:47;22.35;;;4.68;;
51943;SDS011;37969;53.132;6.370;2023-04-25T04:59:13;19.30;;;3.17;;
51943;SDS011;37969;53.132;6.370;2023-04-25T05:01:40;32.20;;;8.25;;
51943;SDS011;37969;53.132;6.370;2023-04-25T05:04:06;29.63;;;7.03;;
51943;SDS011;37969;53.132;6.370;2023-04-25T05:06:32;26.83;;;8.00;;
51943;SDS011;37969;53.132;6.370;2023-04-25T05:08:59;16.73;;;3.58;;
51943;SDS011;37969;53.132;6.370;2023-04-25T05:11:25;24.08;;;4.00;;
51943;SDS011;37969;53.132;6.370;2023-04-25T05:13:51;18.83;;;2.75;;
51943;SDS011;37969;53.132;6.370;2023-04-25T05:16:17;11.70;;;2.45;;
51943;SDS011;37969;53.132;6.370;2023-04-25T05:18:44;19.30;;;3.35;;
51943;SDS011;37969;53.132;6.370;2023-04-25T05:21:10;17.02;;;3.90;;
51943;SDS011;37969;53.132;6.370;2023-04-25T05:23:36;18.42;;;2.78;;
51943;SDS011;37969;53.132;6.370;2023-04-25T05:26:02;28.15;;;3.58;;
51943;SDS011;37969;53.132;6.370;2023-04-25T05:28:28;20.10;;;3.05;;
51943;SDS011;37969;53.132;6.370;2023-04-25T05:30:54;21.30;;;3.88;;
51943;SDS011;37969;53.132;6.370;2023-04-25T05:33:20;15.98;;;2.65;;
51943;SDS011;37969;53.132;6.370;2023-04-25T05:35:47;17.17;;;2.72;;
51943;SDS011;37969;53.132;6.370;2023-04-25T05:38:13;16.25;;;3.28;;
51943;SDS011;37969;53.132;6.370;2023-04-25T05:40:39;20.50;;;3.45;;
51943;SDS011;37969;53.132;6.370;2023-04-25T05:43:05;18.08;;;4.95;;
51943;SDS011;37969;53.132;6.370;2023-04-25T05:45:32;16.35;;;3.47;;
51943;SDS011;37969;53.132;6.370;2023-04-25T05:47:58;14.75;;;2.80;;
51943;SDS011;37969;53.132;6.370;2023-04-25T05:50:24;26.70;;;5.10;;
51943;SDS011;37969;53.132;6.370;2023-04-25T05:52:50;16.70;;;3.10;;
51943;SDS011;37969;53.132;6.370;2023-04-25T05:55:17;14.30;;;2.72;;
51943;SDS011;37969;53.132;6.370;2023-04-25T05:57:43;21.17;;;2.88;;
51943;SDS011;37969;53.132;6.370;2023-04-25T06:00:11;15.93;;;3.42;;
51943;SDS011;37969;53.132;6.370;2023-04-25T06:02:37;16.08;;;2.90;;
51943;SDS011;37969;53.132;6.370;2023-04-25T06:05:03;16.70;;;3.67;;
51943;SDS011;37969;53.132;6.370;2023-04-25T06:07:30;16.98;;;3.53;;
51943;SDS011;37969;53.132;6.370;2023-04-25T06:09:56;16.52;;;2.45;;
51943;SDS011;37969;53.132;6.370;2023-04-25T06:12:22;17.20;;;2.10;;
51943;SDS011;37969;53.132;6.370;2023-04-25T06:14:48;8.00;;;1.80;;
51943;SDS011;37969;53.132;6.370;2023-04-25T06:17:15;17.80;;;2.60;;
51943;SDS011;37969;53.132;6.370;2023-04-25T06:19:41;9.80;;;1.98;;
51943;SDS011;37969;53.132;6.370;2023-04-25T06:22:07;19.75;;;2.63;;
51943;SDS011;37969;53.132;6.370;2023-04-25T06:24:33;15.57;;;2.42;;
51943;SDS011;37969;53.132;6.370;2023-04-25T06:27:00;13.98;;;2.47;;
51943;SDS011;37969;53.132;6.370;2023-04-25T06:29:26;14.50;;;1.90;;
51943;SDS011;37969;53.132;6.370;2023-04-25T06:31:52;12.80;;;2.35;;
51943;SDS011;37969;53.132;6.370;2023-04-25T06:34:18;13.45;;;1.92;;
51943;SDS011;37969;53.132;6.370;2023-04-25T06:36:45;5.88;;;1.58;;
51943;SDS011;37969;53.132;6.370;2023-04-25T06:39:11;8.55;;;1.58;;
51943;SDS011;37969;53.132;6.370;2023-04-25T06:41:37;8.05;;;1.85;;
51943;SDS011;37969;53.132;6.370;2023-04-25T06:44:04;12.35;;;1.42;;
51943;SDS011;37969;53.132;6.370;2023-04-25T06:46:30;7.85;;;1.80;;
51943;SDS011;37969;53.132;6.370;2023-04-25T06:48:56;6.25;;;1.73;;
51943;SDS011;37969;53.132;6.370;2023-04-25T06:51:22;10.48;;;1.50;;
51943;SDS011;37969;53.132;6.370;2023-04-25T06:53:49;8.45;;;1.27;;
51943;SDS011;37969;53.132;6.370;2023-04-25T06:56:15;12.27;;;1.85;;
51943;SDS011;37969;53.132;6.370;2023-04-25T06:58:42;13.75;;;2.08;;
51943;SDS011;37969;53.132;6.370;2023-04-25T07:01:08;12.60;;;2.17;;
51943;SDS011;37969;53.132;6.370;2023-04-25T07:03:34;12.27;;;2.17;;
51943;SDS011;37969;53.132;6.370;2023-04-25T07:06:02;7.65;;;1.65;;
51943;SDS011;37969;53.132;6.370;2023-04-25T07:08:28;13.20;;;2.47;;
51943;SDS011;37969;53.132;6.370;2023-04-25T07:10:54;15.85;;;2.85;;
51943;SDS011;37969;53.132;6.370;2023-04-25T07:13:21;14.73;;;2.30;;
51943;SDS011;37969;53.132;6.370;2023-04-25T07:15:47;9.68;;;2.47;;
51943;SDS011;37969;53.132;6.370;2023-04-25T07:18:13;16.08;;;2.08;;
51943;SDS011;37969;53.132;6.370;2023-04-25T07:20:40;17.65;;;2.95;;
51943;SDS011;37969;53.132;6.370;2023-04-25T07:23:06;11.88;;;1.98;;
51943;SDS011;37969;53.132;6.370;2023-04-25T07:25:32;12.77;;;2.00;;
51943;SDS011;37969;53.132;6.370;2023-04-25T07:27:58;18.65;;;2.28;;
51943;SDS011;37969;53.132;6.370;2023-04-25T07:30:25;8.32;;;1.98;;
51943;SDS011;37969;53.132;6.370;2023-04-25T07:32:51;11.63;;;1.67;;
51943;SDS011;37969;53.132;6.370;2023-04-25T07:35:17;9.52;;;1.70;;
51943;SDS011;37969;53.132;6.370;2023-04-25T07:37:43;4.50;;;1.40;;
51943;SDS011;37969;53.132;6.370;2023-04-25T07:40:10;11.73;;;2.35;;
51943;SDS011;37969;53.132;6.370;2023-04-25T07:42:36;4.60;;;1.20;;
51943;SDS011;37969;53.132;6.370;2023-04-25T07:45:02;5.70;;;1.20;;
51943;SDS011;37969;53.132;6.370;2023-04-25T07:47:28;4.65;;;1.10;;
51943;SDS011;37969;53.132;6.370;2023-04-25T07:49:54;6.57;;;1.40;;
51943;SDS011;37969;53.132;6.370;2023-04-25T07:52:22;8.65;;;1.17;;
51943;SDS011;37969;53.132;6.370;2023-04-25T07:54:49;9.30;;;1.92;;
51943;SDS011;37969;53.132;6.370;2023-04-25T07:57:17;14.20;;;2.30;;
51943;SDS011;37969;53.132;6.370;2023-04-25T07:59:44;8.93;;;1.75;;
51943;SDS011;37969;53.132;6.370;2023-04-25T08:02:10;6.10;;;1.65;;
51943;SDS011;37969;53.132;6.370;2023-04-25T08:04:36;12.45;;;2.00;;
51943;SDS011;37969;53.132;6.370;2023-04-25T08:07:03;7.40;;;2.10;;
51943;SDS011;37969;53.132;6.370;2023-04-25T08:09:29;8.50;;;1.92;;
51943;SDS011;37969;53.132;6.370;2023-04-25T08:11:59;11.15;;;1.73;;
51943;SDS011;37969;53.132;6.370;2023-04-25T08:14:27;9.18;;;1.42;;
51943;SDS011;37969;53.132;6.370;2023-04-25T08:16:54;14.23;;;2.08;;
51943;SDS011;37969;53.132;6.370;2023-04-25T08:19:20;9.07;;;1.75;;
51943;SDS011;37969;53.132;6.370;2023-04-25T08:21:46;7.78;;;1.50;;
51943;SDS011;37969;53.132;6.370;2023-04-25T08:24:12;8.15;;;1.75;;
51943;SDS011;37969;53.132;6.370;2023-04-25T08:26:39;7.70;;;1.27;;
51943;SDS011;37969;53.132;6.370;2023-04-25T08:29:06;10.40;;;1.50;;
51943;SDS011;37969;53.132;6.370;2023-04-25T08:31:32;8.35;;;1.55;;
51943;SDS011;37969;53.132;6.370;2023-04-25T08:33:58;7.22;;;1.30;;
51943;SDS011;37969;53.132;6.370;2023-04-25T08:36:24;7.85;;;1.40;;
51943;SDS011;37969;53.132;6.370;2023-04-25T08:38:53;6.65;;;1.60;;
51943;SDS011;37969;53.132;6.370;2023-04-25T08:41:20;5.72;;;1.13;;
51943;SDS011;37969;53.132;6.370;2023-04-25T08:43:48;8.40;;;1.27;;
51943;SDS011;37969;53.132;6.370;2023-04-25T08:46:16;5.32;;;1.45;;
51943;SDS011;37969;53.132;6.370;2023-04-25T08:48:43;5.75;;;1.20;;
51943;SDS011;37969;53.132;6.370;2023-04-25T08:51:10;7.97;;;1.10;;
51943;SDS011;37969;53.132;6.370;2023-04-25T08:53:40;8.10;;;1.48;;
51943;SDS011;37969;53.132;6.370;2023-04-25T08:56:08;2.95;;;1.10;;
51943;SDS011;37969;53.132;6.370;2023-04-25T08:58:38;4.85;;;1.15;;
51943;SDS011;37969;53.132;6.370;2023-04-25T09:01:04;4.15;;;1.10;;
51943;SDS011;37969;53.132;6.370;2023-04-25T09:03:30;8.38;;;1.73;;
51943;SDS011;37969;53.132;6.370;2023-04-25T09:05:56;6.72;;;1.20;;
51943;SDS011;37969;53.132;6.370;2023-04-25T09:08:23;3.05;;;0.80;;
51943;SDS011;37969;53.132;6.370;2023-04-25T09:10:50;8.63;;;1.60;;
51943;SDS011;37969;53.132;6.370;2023-04-25T09:13:23;4.97;;;1.10;;
51943;SDS011;37969;53.132;6.370;2023-04-25T09:15:50;7.97;;;2.00;;
51943;SDS011;37969;53.132;6.370;2023-04-25T09:18:26;6.28;;;1.58;;
51943;SDS011;37969;53.132;6.370;2023-04-25T09:20:53;8.75;;;1.95;;
51943;SDS011;37969;53.132;6.370;2023-04-25T09:23:20;10.85;;;2.08;;
51943;SDS011;37969;53.132;6.370;2023-04-25T09:25:47;8.20;;;1.55;;
51943;SDS011;37969;53.132;6.370;2023-04-25T09:28:13;9.27;;;2.35;;
51943;SDS011;37969;53.132;6.370;2023-04-25T09:30:40;13.88;;;2.20;;
51943;SDS011;37969;53.132;6.370;2023-04-25T09:33:07;11.13;;;2.20;;
51943;SDS011;37969;53.132;6.370;2023-04-25T09:35:40;10.52;;;3.00;;
51943;SDS011;37969;53.132;6.370;2023-04-25T09:38:07;13.82;;;2.17;;
51943;SDS011;37969;53.132;6.370;2023-04-25T09:40:34;14.02;;;2.72;;
51943;SDS011;37969;53.132;6.370;2023-04-25T09:43:08;18.42;;;3.47;;
51943;SDS011;37969;53.132;6.370;2023-04-25T09:45:40;12.43;;;2.30;;
51943;SDS011;37969;53.132;6.370;2023-04-25T09:48:08;8.40;;;1.98;;
51943;SDS011;37969;53.132;6.370;2023-04-25T09:50:34;8.38;;;2.03;;
51943;SDS011;37969;53.132;6.370;2023-04-25T09:53:02;6.68;;;1.58;;
51943;SDS011;37969;53.132;6.370;2023-04-25T09:55:31;15.55;;;1.98;;
51943;SDS011;37969;53.132;6.370;2023-04-25T09:57:58;11.98;;;2.13;;
51943;SDS011;37969;53.132;6.370;2023-04-25T10:00:27;9.90;;;1.50;;
51943;SDS011;37969;53.132;6.370;2023-04-25T10:02:54;11.32;;;2.22;;
51943;SDS011;37969;53.132;6.370;2023-04-25T10:05:20;14.73;;;2.08;;
51943;SDS011;37969;53.132;6.370;2023-04-25T10:07:47;13.45;;;2.20;;
51943;SDS011;37969;53.132;6.370;2023-04-25T10:10:14;13.73;;;2.05;;
51943;SDS011;37969;53.132;6.370;2023-04-25T10:15:44;10.85;;;1.90;;
51943;SDS011;37969;53.132;6.370;2023-04-25T10:18:10;14.15;;;1.98;;
51943;SDS011;37969;53.132;6.370;2023-04-25T10:20:37;13.32;;;1.58;;
51943;SDS011;37969;53.132;6.370;2023-04-25T10:23:06;9.07;;;2.00;;
51943;SDS011;37969;53.132;6.370;2023-04-25T10:25:34;8.98;;;1.80;;
51943;SDS011;37969;53.132;6.370;2023-04-25T10:28:00;10.73;;;2.75;;
51943;SDS011;37969;53.132;6.370;2023-04-25T10:30:29;14.40;;;2.40;;
51943;SDS011;37969;53.132;6.370;2023-04-25T10:35:25;9.77;;;2.30;;
51943;SDS011;37969;53.132;6.370;2023-04-25T10:40:27;11.98;;;1.75;;
51943;SDS011;37969;53.132;6.370;2023-04-25T10:42:54;16.83;;;2.70;;
51943;SDS011;37969;53.132;6.370;2023-04-25T10:45:21;10.77;;;2.15;;
51943;SDS011;37969;53.132;6.370;2023-04-25T10:47:47;10.80;;;2.30;;
51943;SDS011;37969;53.132;6.370;2023-04-25T10:50:14;12.85;;;2.47;;
51943;SDS011;37969;53.132;6.370;2023-04-25T10:52:42;14.50;;;2.90;;
51943;SDS011;37969;53.132;6.370;2023-04-25T10:55:09;9.68;;;1.88;;
51943;SDS011;37969;53.132;6.370;2023-04-25T10:57:40;11.18;;;2.08;;
51943;SDS011;37969;53.132;6.370;2023-04-25T11:00:08;15.75;;;2.50;;
51943;SDS011;37969;53.132;6.370;2023-04-25T11:02:38;16.27;;;3.38;;
51943;SDS011;37969;53.132;6.370;2023-04-25T11:05:06;12.77;;;2.58;;
51943;SDS011;37969;53.132;6.370;2023-04-25T11:07:49;11.02;;;2.58;;
51943;SDS011;37969;53.132;6.370;2023-04-25T11:10:16;15.88;;;2.30;;
51943;SDS011;37969;53.132;6.370;2023-04-25T11:12:42;9.82;;;1.85;;
51943;SDS011;37969;53.132;6.370;2023-04-25T11:15:08;10.82;;;2.25;;
51943;SDS011;37969;53.132;6.370;2023-04-25T11:17:35;7.07;;;1.95;;
51943;SDS011;37969;53.132;6.370;2023-04-25T11:20:02;9.63;;;1.50;;
51943;SDS011;37969;53.132;6.370;2023-04-25T11:22:32;9.38;;;2.20;;
51943;SDS011;37969;53.132;6.370;2023-04-25T11:25:04;14.95;;;2.13;;
51943;SDS011;37969;53.132;6.370;2023-04-25T11:27:30;19.80;;;2.63;;
51943;SDS011;37969;53.132;6.370;2023-04-25T11:29:56;7.75;;;1.63;;
51943;SDS011;37969;53.132;6.370;2023-04-25T11:32:23;4.40;;;1.17;;
51943;SDS011;37969;53.132;6.370;2023-04-25T11:34:49;5.32;;;1.50;;
51943;SDS011;37969;53.132;6.370;2023-04-25T11:37:15;4.57;;;1.20;;
51943;SDS011;37969;53.132;6.370;2023-04-25T11:39:43;10.15;;;1.77;;
51943;SDS011;37969;53.132;6.370;2023-04-25T11:42:10;3.35;;;1.50;;
51943;SDS011;37969;53.132;6.370;2023-04-25T11:44:37;8.15;;;1.65;;
51943;SDS011;37969;53.132;6.370;2023-04-25T11:47:04;8.70;;;1.90;;
51943;SDS011;37969;53.132;6.370;2023-04-25T11:49:31;6.47;;;1.02;;
51943;SDS011;37969;53.132;6.370;2023-04-25T11:51:57;9.02;;;1.80;;
51943;SDS011;37969;53.132;6.370;2023-04-25T11:54:23;13.23;;;2.42;;
51943;SDS011;37969;53.132;6.370;2023-04-25T11:56:50;12.15;;;1.85;;
51943;SDS011;37969;53.132;6.370;2023-04-25T11:59:16;7.03;;;1.98;;
51943;SDS011;37969;53.132;6.370;2023-04-25T12:01:47;6.55;;;1.65;;
51943;SDS011;37969;53.132;6.370;2023-04-25T12:04:18;14.85;;;1.95;;
51943;SDS011;37969;53.132;6.370;2023-04-25T12:06:46;3.88;;;1.02;;
51943;SDS011;37969;53.132;6.370;2023-04-25T12:09:13;5.60;;;1.13;;
51943;SDS011;37969;53.132;6.370;2023-04-25T12:11:41;8.25;;;1.25;;
51943;SDS011;37969;53.132;6.370;2023-04-25T12:14:08;5.28;;;1.50;;
51943;SDS011;37969;53.132;6.370;2023-04-25T12:16:43;12.13;;;2.05;;
51943;SDS011;37969;53.132;6.370;2023-04-25T12:19:12;6.85;;;1.50;;
51943;SDS011;37969;53.132;6.370;2023-04-25T12:21:39;6.35;;;1.98;;
51943;SDS011;37969;53.132;6.370;2023-04-25T12:24:12;12.75;;;2.20;;
51943;SDS011;37969;53.132;6.370;2023-04-25T12:26:50;12.45;;;1.33;;
51943;SDS011;37969;53.132;6.370;2023-04-25T12:29:17;11.85;;;2.20;;
51943;SDS011;37969;53.132;6.370;2023-04-25T12:31:44;9.98;;;2.38;;
51943;SDS011;37969;53.132;6.370;2023-04-25T12:34:10;10.27;;;2.35;;
51943;SDS011;37969;53.132;6.370;2023-04-25T12:36:37;12.95;;;2.22;;
51943;SDS011;37969;53.132;6.370;2023-04-25T12:39:04;9.38;;;1.58;;
51943;SDS011;37969;53.132;6.370;2023-04-25T12:41:30;17.95;;;2.10;;
51943;SDS011;37969;53.132;6.370;2023-04-25T12:43:56;6.50;;;2.00;;
51943;SDS011;37969;53.132;6.370;2023-04-25T12:46:22;10.68;;;1.95;;
51943;SDS011;37969;53.132;6.370;2023-04-25T12:48:49;12.23;;;1.98;;
51943;SDS011;37969;53.132;6.370;2023-04-25T12:51:15;11.93;;;2.25;;
51943;SDS011;37969;53.132;6.370;2023-04-25T12:53:41;13.52;;;2.50;;
51943;SDS011;37969;53.132;6.370;2023-04-25T12:56:07;13.20;;;2.00;;
51943;SDS011;37969;53.132;6.370;2023-04-25T12:58:34;6.40;;;1.35;;
51943;SDS011;37969;53.132;6.370;2023-04-25T13:01:00;6.50;;;1.20;;
51943;SDS011;37969;53.132;6.370;2023-04-25T13:03:26;5.32;;;1.17;;
51943;SDS011;37969;53.132;6.370;2023-04-25T13:05:52;4.15;;;1.08;;
51943;SDS011;37969;53.132;6.370;2023-04-25T13:08:19;7.03;;;1.50;;
51943;SDS011;37969;53.132;6.370;2023-04-25T13:10:45;10.38;;;1.67;;
51943;SDS011;37969;53.132;6.370;2023-04-25T13:13:13;6.18;;;1.70;;
51943;SDS011;37969;53.132;6.370;2023-04-25T13:15:41;8.50;;;2.05;;
51943;SDS011;37969;53.132;6.370;2023-04-25T13:18:07;10.23;;;2.65;;
51943;SDS011;37969;53.132;6.370;2023-04-25T13:20:33;14.40;;;2.65;;
51943;SDS011;37969;53.132;6.370;2023-04-25T13:23:00;10.82;;;2.15;;
51943;SDS011;37969;53.132;6.370;2023-04-25T13:25:26;9.93;;;1.50;;
51943;SDS011;37969;53.132;6.370;2023-04-25T13:27:52;8.93;;;2.05;;
51943;SDS011;37969;53.132;6.370;2023-04-25T13:30:18;13.52;;;2.22;;
51943;SDS011;37969;53.132;6.370;2023-04-25T13:32:44;10.15;;;2.17;;
51943;SDS011;37969;53.132;6.370;2023-04-25T13:35:11;6.80;;;1.77;;
51943;SDS011;37969;53.132;6.370;2023-04-25T13:37:39;12.10;;;2.33;;
51943;SDS011;37969;53.132;6.370;2023-04-25T13:40:06;7.18;;;1.48;;
51943;SDS011;37969;53.132;6.370;2023-04-25T13:42:35;9.25;;;1.90;;
51943;SDS011;37969;53.132;6.370;2023-04-25T13:45:01;12.68;;;1.92;;
51943;SDS011;37969;53.132;6.370;2023-04-25T13:47:29;7.57;;;2.05;;
51943;SDS011;37969;53.132;6.370;2023-04-25T13:49:56;7.57;;;1.63;;
51943;SDS011;37969;53.132;6.370;2023-04-25T13:52:23;12.88;;;2.17;;
51943;SDS011;37969;53.132;6.370;2023-04-25T13:54:49;10.98;;;1.75;;
51943;SDS011;37969;53.132;6.370;2023-04-25T13:57:16;13.30;;;2.05;;
51943;SDS011;37969;53.132;6.370;2023-04-25T13:59:42;13.63;;;2.40;;
51943;SDS011;37969;53.132;6.370;2023-04-25T14:02:08;14.63;;;2.13;;
51943;SDS011;37969;53.132;6.370;2023-04-25T14:04:34;11.00;;;2.53;;
51943;SDS011;37969;53.132;6.370;2023-04-25T14:07:01;7.78;;;1.88;;
51943;SDS011;37969;53.132;6.370;2023-04-25T14:09:27;10.90;;;2.28;;
51943;SDS011;37969;53.132;6.370;2023-04-25T14:11:54;7.65;;;1.95;;
51943;SDS011;37969;53.132;6.370;2023-04-25T14:14:21;8.57;;;2.20;;
51943;SDS011;37969;53.132;6.370;2023-04-25T14:16:48;10.35;;;2.22;;
51943;SDS011;37969;53.132;6.370;2023-04-25T14:19:15;18.13;;;2.40;;
51943;SDS011;37969;53.132;6.370;2023-04-25T14:21:42;6.95;;;2.08;;
51943;SDS011;37969;53.132;6.370;2023-04-25T14:24:11;15.68;;;2.20;;
51943;SDS011;37969;53.132;6.370;2023-04-25T14:26:38;14.82;;;2.17;;
51943;SDS011;37969;53.132;6.370;2023-04-25T14:29:04;13.57;;;2.20;;
51943;SDS011;37969;53.132;6.370;2023-04-25T14:31:32;12.77;;;2.08;;
51943;SDS011;37969;53.132;6.370;2023-04-25T14:33:58;5.57;;;1.35;;
51943;SDS011;37969;53.132;6.370;2023-04-25T14:36:24;9.18;;;1.77;;
51943;SDS011;37969;53.132;6.370;2023-04-25T14:38:51;12.27;;;2.53;;
51943;SDS011;37969;53.132;6.370;2023-04-25T14:41:17;11.32;;;1.83;;
51943;SDS011;37969;53.132;6.370;2023-04-25T14:43:44;8.65;;;1.63;;